Time;durP1;ratioP1;P1;durP2;ratioP2;P2;SDS_P1;SDS_P2;PMS_P1;PMS_P2;Temp;Humidity;BMP_temperature;BMP_pressure;BME280_temperature;BME280_humidity;BME280_pressure;Samples;Min_cycle;Max_cycle;Signal;HPM_P1;HPM_P2
2023/03/31 00:01:10;;;;;;;9.00;2.50;;;10.60;99.90;;;;;;487287;244;28448;-75
2023/03/31 00:03:20;;;;;;;15.00;2.70;;;10.60;99.90;;;;;;487260;244;28410;-76
2023/03/31 00:05:16;;;;;;;17.63;2.70;;;10.60;99.90;;;;;;486562;244;28478;-76
2023/03/31 00:07:14;;;;;;;8.07;2.37;;;10.60;99.90;;;;;;486998;244;27978;-75
2023/03/31 00:09:20;;;;;;;10.93;2.20;;;10.60;99.90;;;;;;487292;244;28038;-76
2023/03/31 00:11:19;;;;;;;8.80;2.60;;;10.60;99.90;;;;;;487170;244;27656;-76
2023/03/31 00:13:20;;;;;;;7.80;2.53;;;10.60;99.90;;;;;;487315;244;27970;-76
2023/03/31 00:15:21;;;;;;;10.17;2.90;;;10.70;99.90;;;;;;487208;244;28032;-76
2023/03/31 00:17:23;;;;;;;11.33;2.40;;;10.70;99.90;;;;;;487313;244;27922;-76
2023/03/31 00:19:24;;;;;;;6.83;2.00;;;10.60;99.90;;;;;;487318;244;27785;-75
2023/03/31 00:21:28;;;;;;;8.97;2.33;;;10.60;99.90;;;;;;487270;244;27867;-75
2023/03/31 00:23:26;;;;;;;4.80;2.30;;;10.60;99.90;;;;;;487062;244;27960;-76
2023/03/31 00:25:28;;;;;;;10.73;2.60;;;10.50;99.90;;;;;;487229;244;28001;-75
2023/03/31 00:27:29;;;;;;;9.50;2.50;;;10.60;99.90;;;;;;487330;244;28501;-76
2023/03/31 00:29:32;;;;;;;11.03;3.00;;;10.60;99.90;;;;;;487324;243;28460;-76
2023/03/31 00:31:31;;;;;;;9.00;2.50;;;10.70;99.90;;;;;;487171;244;28533;-76
2023/03/31 00:33:33;;;;;;;8.13;2.40;;;10.60;99.90;;;;;;487297;244;27874;-76
2023/03/31 00:35:34;;;;;;;12.23;3.00;;;10.60;99.90;;;;;;487214;244;27948;-76
2023/03/31 00:37:35;;;;;;;9.03;3.00;;;10.60;99.90;;;;;;487310;244;27946;-76
2023/03/31 00:39:37;;;;;;;7.67;2.60;;;10.60;99.90;;;;;;487310;244;28291;-76
2023/03/31 00:41:38;;;;;;;7.80;2.43;;;10.60;99.90;;;;;;487319;244;28018;-75
2023/03/31 00:43:39;;;;;;;4.47;2.10;;;10.60;99.90;;;;;;487327;243;28122;-76
2023/03/31 00:45:40;;;;;;;9.23;3.03;;;10.60;99.90;;;;;;487248;244;28121;-76
2023/03/31 00:47:41;;;;;;;8.97;2.67;;;10.60;99.90;;;;;;487330;244;27944;-76
2023/03/31 00:49:44;;;;;;;12.37;2.30;;;10.60;99.90;;;;;;487283;244;27932;-75
2023/03/31 00:51:44;;;;;;;8.93;2.37;;;10.50;99.90;;;;;;487255;244;28351;-75
2023/03/31 00:53:45;;;;;;;5.97;1.70;;;10.50;99.90;;;;;;487295;244;28349;-75
2023/03/31 00:55:46;;;;;;;15.50;2.93;;;10.40;99.90;;;;;;487298;244;27916;-76
2023/03/31 00:57:48;;;;;;;8.40;2.43;;;10.40;99.90;;;;;;487324;244;27917;-76
2023/03/31 00:59:49;;;;;;;10.30;3.00;;;10.40;99.90;;;;;;487312;244;28004;-76
2023/03/31 01:01:50;;;;;;;11.80;2.80;;;10.40;99.90;;;;;;487295;244;28116;-75
2023/03/31 01:03:51;;;;;;;6.83;2.30;;;10.40;99.90;;;;;;487251;244;27919;-76
2023/03/31 01:05:53;;;;;;;6.73;2.00;;;10.40;99.90;;;;;;487239;244;27959;-75
2023/03/31 01:07:54;;;;;;;9.03;2.63;;;10.40;99.90;;;;;;487322;244;28007;-75
2023/03/31 01:09:55;;;;;;;10.40;2.50;;;10.40;99.90;;;;;;487288;244;28079;-76
2023/03/31 01:11:56;;;;;;;7.03;2.50;;;10.50;99.90;;;;;;487258;244;28478;-76
2023/03/31 01:13:58;;;;;;;6.80;1.90;;;10.60;99.90;;;;;;487226;244;29261;-76
2023/03/31 01:15:59;;;;;;;7.43;2.47;;;10.60;99.90;;;;;;487253;244;28496;-76
2023/03/31 01:18:00;;;;;;;9.67;2.10;;;10.50;99.90;;;;;;487198;244;27933;-76
2023/03/31 01:20:05;;;;;;;9.20;2.73;;;10.50;99.90;;;;;;487315;244;27913;-76
2023/03/31 01:22:04;;;;;;;11.53;2.60;;;10.50;99.90;;;;;;486967;244;27923;-76
2023/03/31 01:24:04;;;;;;;8.57;2.13;;;10.40;99.90;;;;;;487187;243;28057;-76
2023/03/31 01:26:06;;;;;;;7.63;2.27;;;10.40;99.90;;;;;;487316;244;27784;-75
2023/03/31 01:28:06;;;;;;;9.97;2.30;;;10.40;99.90;;;;;;487250;244;27929;-77
2023/03/31 01:30:08;;;;;;;7.40;2.13;;;10.30;99.90;;;;;;487246;244;27889;-75
2023/03/31 01:32:09;;;;;;;8.07;2.70;;;10.30;99.90;;;;;;487207;243;28075;-76
2023/03/31 01:34:10;;;;;;;6.23;2.57;;;10.20;99.90;;;;;;487250;244;28196;-76
2023/03/31 01:36:11;;;;;;;9.87;2.40;;;10.20;99.90;;;;;;487250;244;28589;-76
2023/03/31 01:38:13;;;;;;;13.40;2.60;;;10.20;99.90;;;;;;487272;244;28659;-76
2023/03/31 01:40:14;;;;;;;5.67;1.70;;;10.20;99.90;;;;;;487269;244;28521;-75
2023/03/31 01:42:15;;;;;;;12.00;2.33;;;10.10;99.90;;;;;;487256;244;27957;-76
2023/03/31 01:44:16;;;;;;;8.40;2.37;;;10.10;99.90;;;;;;487267;244;28049;-77
2023/03/31 01:46:18;;;;;;;6.87;1.97;;;10.00;99.90;;;;;;487315;244;27885;-76
2023/03/31 01:48:20;;;;;;;4.73;1.87;;;10.00;99.90;;;;;;487293;244;27681;-76
2023/03/31 01:50:20;;;;;;;7.97;1.77;;;9.90;99.90;;;;;;487298;244;27873;-76
2023/03/31 01:52:21;;;;;;;9.10;2.33;;;9.80;99.90;;;;;;487298;244;27890;-76
2023/03/31 01:54:23;;;;;;;8.37;2.17;;;9.80;99.90;;;;;;487264;243;28035;-76
2023/03/31 01:56:24;;;;;;;7.27;2.30;;;9.80;99.90;;;;;;487326;244;27887;-76
2023/03/31 01:58:25;;;;;;;3.60;1.90;;;9.70;99.90;;;;;;487310;244;27940;-75
2023/03/31 02:00:28;;;;;;;8.97;2.40;;;9.70;99.90;;;;;;487293;244;27769;-76
2023/03/31 02:02:28;;;;;;;9.87;2.57;;;9.70;99.90;;;;;;487216;244;28377;-76
2023/03/31 02:04:29;;;;;;;6.70;2.00;;;9.70;99.90;;;;;;487278;244;28575;-76
2023/03/31 02:06:30;;;;;;;8.43;2.47;;;9.60;99.90;;;;;;487307;244;28218;-76
2023/03/31 02:08:31;;;;;;;6.47;2.07;;;9.60;99.90;;;;;;487316;244;28389;-76
2023/03/31 02:10:33;;;;;;;7.30;2.10;;;9.60;99.90;;;;;;487313;244;28352;-75
2023/03/31 02:12:34;;;;;;;7.37;2.30;;;9.60;99.90;;;;;;487281;244;27954;-76
2023/03/31 02:14:35;;;;;;;7.53;2.33;;;9.50;99.90;;;;;;487278;244;27936;-77
2023/03/31 02:16:36;;;;;;;9.87;2.93;;;9.50;99.90;;;;;;487302;244;27927;-75
2023/03/31 02:18:40;;;;;;;5.60;2.27;;;9.50;99.90;;;;;;487301;244;28042;-76
2023/03/31 02:20:40;;;;;;;3.87;1.77;;;9.50;99.90;;;;;;487187;243;27490;-76
2023/03/31 02:22:40;;;;;;;7.07;2.50;;;9.50;99.90;;;;;;487220;244;27911;-76
2023/03/31 02:24:41;;;;;;;8.27;2.37;;;9.50;99.90;;;;;;487307;244;27947;-76
2023/03/31 02:26:43;;;;;;;9.03;2.77;;;9.50;99.90;;;;;;487330;244;28009;-76
2023/03/31 02:28:44;;;;;;;5.53;2.23;;;9.50;99.90;;;;;;487311;244;27903;-75
2023/03/31 02:30:45;;;;;;;4.47;1.83;;;9.50;99.90;;;;;;487320;244;27950;-76
2023/03/31 02:32:46;;;;;;;8.47;2.20;;;9.50;99.90;;;;;;487326;244;28029;-76
2023/03/31 02:34:48;;;;;;;7.63;2.00;;;9.50;99.90;;;;;;487320;244;28146;-76
2023/03/31 02:36:49;;;;;;;6.90;2.10;;;9.50;99.90;;;;;;487342;244;27874;-76
2023/03/31 02:38:50;;;;;;;5.73;1.63;;;9.50;99.90;;;;;;487317;244;27782;-76
2023/03/31 02:40:51;;;;;;;4.73;2.03;;;9.50;99.90;;;;;;487269;244;28172;-76
2023/03/31 02:42:53;;;;;;;7.17;1.97;;;9.50;99.90;;;;;;487288;244;28394;-75
2023/03/31 02:44:54;;;;;;;7.87;2.17;;;9.50;99.90;;;;;;487258;244;28184;-75
2023/03/31 02:46:55;;;;;;;11.50;3.10;;;9.50;99.90;;;;;;487307;244;28501;-76
2023/03/31 02:48:56;;;;;;;4.37;2.27;;;9.50;99.90;;;;;;487294;244;28114;-76
2023/03/31 02:50:58;;;;;;;7.50;2.53;;;9.50;99.90;;;;;;487266;244;27840;-75
2023/03/31 02:52:59;;;;;;;8.73;2.30;;;9.40;99.90;;;;;;487290;244;27982;-76
2023/03/31 02:55:00;;;;;;;6.33;2.23;;;9.40;99.90;;;;;;487316;244;28030;-76
2023/03/31 02:57:01;;;;;;;5.20;2.10;;;9.40;99.90;;;;;;487334;244;28169;-76
2023/03/31 02:59:03;;;;;;;7.23;2.10;;;9.40;99.90;;;;;;487291;244;27982;-77
2023/03/31 03:01:04;;;;;;;7.83;2.00;;;9.40;99.90;;;;;;487313;244;27831;-76
2023/03/31 03:03:06;;;;;;;4.00;1.80;;;9.30;99.90;;;;;;487312;244;27802;-75
2023/03/31 03:05:07;;;;;;;5.63;2.17;;;9.40;99.90;;;;;;487257;244;28010;-76
2023/03/31 03:07:08;;;;;;;7.90;2.13;;;9.40;99.90;;;;;;487299;244;27735;-76
2023/03/31 03:09:09;;;;;;;4.60;2.13;;;9.40;99.90;;;;;;487273;244;27742;-75
2023/03/31 03:11:10;;;;;;;4.80;1.80;;;9.30;99.90;;;;;;487305;244;28012;-76
2023/03/31 03:13:11;;;;;;;10.23;3.23;;;9.30;99.90;;;;;;487295;244;27853;-76
2023/03/31 03:15:13;;;;;;;5.43;2.10;;;9.20;99.90;;;;;;487219;244;27927;-76
2023/03/31 03:17:14;;;;;;;5.37;2.10;;;9.30;99.90;;;;;;487252;244;28446;-76
2023/03/31 03:19:15;;;;;;;4.73;1.70;;;9.20;99.90;;;;;;487239;244;28467;-76
2023/03/31 03:21:17;;;;;;;7.73;2.30;;;9.30;99.90;;;;;;487308;244;28451;-76
2023/03/31 03:23:18;;;;;;;7.20;2.40;;;9.20;99.90;;;;;;487318;244;28327;-76
2023/03/31 03:25:19;;;;;;;6.50;1.90;;;9.20;99.90;;;;;;487223;244;28362;-76
2023/03/31 03:27:21;;;;;;;7.77;2.00;;;9.10;99.90;;;;;;487261;244;27403;-76
2023/03/31 03:29:21;;;;;;;3.00;1.70;;;9.20;99.90;;;;;;487236;244;27553;-76
2023/03/31 03:31:24;;;;;;;5.60;2.43;;;9.20;99.90;;;;;;487320;244;28052;-76
2023/03/31 03:33:24;;;;;;;4.30;1.83;;;9.20;99.90;;;;;;487213;244;27591;-76
2023/03/31 03:35:25;;;;;;;6.10;2.23;;;9.10;99.90;;;;;;487239;243;28024;-75
2023/03/31 03:37:26;;;;;;;4.10;1.97;;;9.10;99.90;;;;;;487295;244;27960;-76
2023/03/31 03:39:28;;;;;;;8.53;1.97;;;9.00;99.90;;;;;;487251;244;27695;-76
2023/03/31 03:41:30;;;;;;;8.30;2.03;;;9.00;99.90;;;;;;487330;244;28399;-76
2023/03/31 03:43:30;;;;;;;5.87;1.93;;;9.00;99.90;;;;;;487289;243;28018;-76
2023/03/31 03:45:31;;;;;;;11.13;2.53;;;9.00;99.90;;;;;;487269;244;28071;-76
2023/03/31 03:47:33;;;;;;;7.60;2.43;;;9.00;99.90;;;;;;487298;244;28055;-76
2023/03/31 03:49:34;;;;;;;5.30;2.17;;;9.00;99.90;;;;;;487265;244;28041;-76
2023/03/31 03:51:35;;;;;;;5.37;2.20;;;9.10;99.90;;;;;;487274;244;28028;-81
2023/03/31 03:53:36;;;;;;;12.23;2.77;;;9.10;99.90;;;;;;487324;244;28516;-76
2023/03/31 03:55:38;;;;;;;7.07;2.30;;;9.10;99.90;;;;;;487245;244;28465;-76
2023/03/31 03:57:39;;;;;;;5.67;2.17;;;9.10;99.90;;;;;;487271;244;28221;-76
2023/03/31 03:59:40;;;;;;;7.50;2.73;;;9.20;99.90;;;;;;487285;244;27997;-76
2023/03/31 04:01:41;;;;;;;7.50;2.37;;;9.20;99.90;;;;;;487315;244;28205;-76
2023/03/31 04:03:43;;;;;;;9.00;2.93;;;9.20;99.90;;;;;;487310;244;27993;-76
2023/03/31 04:05:44;;;;;;;6.60;2.93;;;9.30;99.90;;;;;;487232;244;27910;-76
2023/03/31 04:07:45;;;;;;;10.50;2.83;;;9.30;99.90;;;;;;487281;244;27747;-76
2023/03/31 04:09:46;;;;;;;6.87;3.03;;;9.20;99.90;;;;;;487270;244;27993;-76
2023/03/31 04:11:48;;;;;;;12.80;3.10;;;9.30;99.90;;;;;;487303;244;27780;-76
2023/03/31 04:13:49;;;;;;;7.83;3.37;;;9.20;99.90;;;;;;487327;244;27744;-75
2023/03/31 04:15:50;;;;;;;7.43;3.03;;;9.20;99.90;;;;;;487231;244;27953;-76
2023/03/31 04:17:53;;;;;;;10.60;3.27;;;9.20;99.90;;;;;;487276;244;27757;-75
2023/03/31 04:19:53;;;;;;;7.63;2.93;;;9.20;99.90;;;;;;487191;244;28020;-76
2023/03/31 04:22:03;;;;;;;9.77;2.87;;;9.20;99.90;;;;;;487233;244;27498;-76
2023/03/31 04:24:00;;;;;;;7.20;2.63;;;9.20;99.90;;;;;;485415;244;27745;-76
2023/03/31 04:26:00;;;;;;;5.77;2.90;;;9.20;99.90;;;;;;487047;244;27886;-75
2023/03/31 04:28:00;;;;;;;8.47;2.80;;;9.20;99.90;;;;;;487272;244;27927;-75
2023/03/31 04:30:02;;;;;;;5.30;2.87;;;9.20;99.90;;;;;;487284;244;27931;-76
2023/03/31 04:32:03;;;;;;;4.87;2.60;;;9.20;99.90;;;;;;487278;244;28020;-75
2023/03/31 04:34:05;;;;;;;5.70;2.67;;;9.20;99.90;;;;;;487314;244;28100;-76
2023/03/31 04:36:16;;;;;;;6.97;2.97;;;9.20;99.90;;;;;;487229;244;27533;-76
2023/03/31 04:38:07;;;;;;;9.13;2.90;;;9.20;99.90;;;;;;486462;244;27961;-76
2023/03/31 04:40:08;;;;;;;6.00;3.10;;;9.20;99.90;;;;;;487265;244;28192;-76
2023/03/31 04:42:09;;;;;;;5.73;3.00;;;9.20;99.90;;;;;;487253;244;28438;-76
2023/03/31 04:44:10;;;;;;;7.47;3.13;;;9.20;99.90;;;;;;487306;244;28562;-76
2023/03/31 04:46:12;;;;;;;5.07;3.07;;;9.10;99.90;;;;;;487241;244;28391;-76
2023/03/31 04:48:13;;;;;;;6.23;3.33;;;9.10;99.90;;;;;;487307;244;28507;-76
2023/03/31 04:50:14;;;;;;;5.17;3.03;;;9.10;99.90;;;;;;487286;244;28294;-76
2023/03/31 04:52:15;;;;;;;7.10;3.83;;;9.20;99.90;;;;;;487261;244;28063;-76
2023/03/31 04:54:17;;;;;;;5.60;2.90;;;9.10;99.90;;;;;;487314;244;27636;-76
2023/03/31 04:56:18;;;;;;;9.40;3.83;;;9.10;99.90;;;;;;487264;244;27762;-76
2023/03/31 04:58:19;;;;;;;7.00;3.27;;;9.10;99.90;;;;;;487280;244;27909;-76
2023/03/31 05:00:20;;;;;;;13.90;3.90;;;9.20;99.90;;;;;;487256;244;27950;-76
2023/03/31 05:02:25;;;;;;;5.90;3.40;;;9.10;99.90;;;;;;487249;244;28020;-76
2023/03/31 05:04:26;;;;;;;8.73;3.90;;;9.10;99.90;;;;;;487249;244;28213;-75
2023/03/31 05:06:27;;;;;;;14.13;4.03;;;9.10;99.90;;;;;;487333;244;28373;-76
2023/03/31 05:08:29;;;;;;;9.40;4.00;;;9.10;99.90;;;;;;487307;243;28339;-76
2023/03/31 05:10:30;;;;;;;10.30;4.20;;;9.10;99.90;;;;;;487294;244;27923;-76
2023/03/31 05:12:31;;;;;;;10.80;3.90;;;9.10;99.90;;;;;;487294;244;27891;-76
2023/03/31 05:14:32;;;;;;;12.03;3.87;;;9.10;99.90;;;;;;487214;244;28056;-76
2023/03/31 05:16:34;;;;;;;8.67;3.87;;;9.00;99.90;;;;;;487333;244;27932;-77
2023/03/31 05:18:35;;;;;;;10.50;4.50;;;9.00;99.90;;;;;;487291;244;27763;-76
2023/03/31 05:20:36;;;;;;;9.87;4.00;;;9.00;99.90;;;;;;487310;244;27867;-76
2023/03/31 05:22:37;;;;;;;9.03;4.30;;;9.00;99.90;;;;;;487317;244;27398;-76
2023/03/31 05:24:38;;;;;;;9.53;4.10;;;9.00;99.90;;;;;;487244;244;27934;-75
2023/03/31 05:26:40;;;;;;;11.00;4.63;;;9.00;99.90;;;;;;487311;244;28001;-77
2023/03/31 05:28:41;;;;;;;13.13;5.17;;;9.00;99.90;;;;;;487307;244;27846;-76
2023/03/31 05:30:42;;;;;;;9.93;4.57;;;9.00;99.90;;;;;;487251;244;28384;-76
2023/03/31 05:32:43;;;;;;;10.87;5.13;;;9.00;99.90;;;;;;487300;244;28803;-76
2023/03/31 05:34:45;;;;;;;10.60;4.27;;;9.00;99.90;;;;;;487250;244;28331;-76
2023/03/31 05:36:47;;;;;;;11.03;4.50;;;9.00;99.90;;;;;;487349;244;28104;-76
2023/03/31 05:38:47;;;;;;;11.60;4.80;;;9.00;99.90;;;;;;487288;244;27882;-75
2023/03/31 05:40:49;;;;;;;7.87;3.90;;;9.10;99.90;;;;;;487264;244;27981;-76
2023/03/31 05:42:50;;;;;;;10.73;5.13;;;9.10;99.90;;;;;;487288;244;27913;-76
2023/03/31 05:44:51;;;;;;;8.60;4.47;;;9.10;99.90;;;;;;487251;244;27890;-76
2023/03/31 05:46:52;;;;;;;9.07;5.20;;;9.00;99.90;;;;;;487296;244;27982;-76
2023/03/31 05:48:54;;;;;;;8.43;4.93;;;9.00;99.90;;;;;;487271;244;27913;-76
2023/03/31 05:50:55;;;;;;;9.80;4.80;;;9.00;99.90;;;;;;487271;244;27791;-76
2023/03/31 05:52:56;;;;;;;7.37;4.50;;;9.00;99.90;;;;;;487298;244;28033;-76
2023/03/31 05:54:57;;;;;;;12.67;4.93;;;9.10;99.90;;;;;;487268;244;27712;-76
2023/03/31 05:56:58;;;;;;;11.40;4.60;;;9.20;99.90;;;;;;487295;244;27941;-76
2023/03/31 05:59:00;;;;;;;12.63;4.97;;;9.20;99.90;;;;;;487290;244;27979;-76
2023/03/31 06:01:01;;;;;;;8.30;4.63;;;9.20;99.90;;;;;;487278;244;28250;-76
2023/03/31 06:03:02;;;;;;;8.33;4.27;;;9.20;99.90;;;;;;487303;244;29232;-75
2023/03/31 06:05:03;;;;;;;14.30;4.80;;;9.30;99.90;;;;;;487255;244;28465;-76
2023/03/31 06:07:05;;;;;;;12.30;5.10;;;9.20;99.90;;;;;;487295;244;28443;-76
2023/03/31 06:09:06;;;;;;;9.63;4.53;;;9.20;99.90;;;;;;487288;244;28110;-75
2023/03/31 06:11:07;;;;;;;7.90;4.80;;;9.20;99.90;;;;;;487296;244;27915;-76
2023/03/31 06:13:09;;;;;;;10.63;5.10;;;9.30;99.90;;;;;;487297;244;27738;-76
2023/03/31 06:15:10;;;;;;;6.70;5.30;;;9.40;99.90;;;;;;487279;244;27596;-76
2023/03/31 06:17:11;;;;;;;10.70;5.93;;;9.40;99.90;;;;;;487285;244;27703;-76
2023/03/31 06:19:12;;;;;;;9.20;4.90;;;9.40;99.90;;;;;;487278;244;27916;-76
2023/03/31 06:21:15;;;;;;;15.57;5.57;;;9.40;99.90;;;;;;487314;244;28041;-76
2023/03/31 06:23:15;;;;;;;11.97;4.90;;;9.50;99.90;;;;;;487250;244;27640;-76
2023/03/31 06:25:16;;;;;;;9.27;4.73;;;9.50;99.90;;;;;;487268;244;27955;-76
2023/03/31 06:27:17;;;;;;;12.20;6.50;;;9.40;99.90;;;;;;487306;244;27570;-76
2023/03/31 06:29:19;;;;;;;13.93;4.90;;;9.50;99.90;;;;;;487307;244;27986;-76
2023/03/31 06:31:20;;;;;;;11.80;5.10;;;9.40;99.90;;;;;;487290;244;28279;-76
2023/03/31 06:33:21;;;;;;;9.37;4.53;;;9.40;99.90;;;;;;487330;244;29178;-75
2023/03/31 06:35:22;;;;;;;12.30;5.40;;;9.40;99.90;;;;;;487304;244;28476;-76
2023/03/31 06:37:24;;;;;;;10.53;5.10;;;9.50;99.90;;;;;;487329;244;27924;-76
2023/03/31 06:39:25;;;;;;;8.80;4.83;;;9.40;99.90;;;;;;487310;244;27938;-76
2023/03/31 06:41:26;;;;;;;10.40;5.33;;;9.40;99.90;;;;;;487311;244;28015;-76
2023/03/31 06:43:27;;;;;;;8.53;5.00;;;9.40;99.90;;;;;;487321;244;27920;-75
2023/03/31 06:45:29;;;;;;;13.37;6.00;;;9.50;99.90;;;;;;487254;244;28097;-76
2023/03/31 06:47:30;;;;;;;9.43;5.00;;;9.50;99.90;;;;;;487353;244;27659;-76
2023/03/31 06:49:31;;;;;;;8.07;4.50;;;9.50;99.90;;;;;;487321;244;27889;-75
2023/03/31 06:51:32;;;;;;;12.37;5.70;;;9.60;99.90;;;;;;487291;244;27929;-76
2023/03/31 06:53:34;;;;;;;11.17;5.17;;;9.70;99.90;;;;;;487312;244;27803;-76
2023/03/31 06:55:35;;;;;;;8.67;5.23;;;9.80;99.90;;;;;;487301;244;27899;-76
2023/03/31 06:57:36;;;;;;;13.30;6.20;;;9.90;99.90;;;;;;487305;244;28033;-76
2023/03/31 06:59:37;;;;;;;11.00;5.60;;;9.90;99.90;;;;;;487305;244;28520;-76
2023/03/31 07:01:41;;;;;;;12.03;5.77;;;10.00;99.90;;;;;;487285;244;28416;-76
2023/03/31 07:03:40;;;;;;;11.47;5.50;;;10.00;99.90;;;;;;487156;244;28964;-76
2023/03/31 07:05:41;;;;;;;13.63;5.17;;;10.00;99.90;;;;;;487295;244;27884;-76
2023/03/31 07:07:42;;;;;;;8.87;5.13;;;10.00;99.90;;;;;;487331;244;27986;-76
2023/03/31 07:09:44;;;;;;;15.17;5.10;;;10.10;99.90;;;;;;487319;244;27754;-76
2023/03/31 07:11:45;;;;;;;20.60;5.77;;;10.10;99.90;;;;;;487318;244;27905;-76
2023/03/31 07:13:46;;;;;;;10.90;5.13;;;10.20;99.90;;;;;;487329;244;27846;-76
2023/03/31 07:15:47;;;;;;;10.10;5.30;;;10.30;99.90;;;;;;487306;244;27914;-76
2023/03/31 07:17:49;;;;;;;13.70;5.30;;;10.40;99.90;;;;;;487321;244;28020;-76
2023/03/31 07:19:50;;;;;;;8.47;4.73;;;10.40;99.90;;;;;;487295;244;28322;-76
2023/03/31 07:21:52;;;;;;;9.57;5.20;;;10.30;99.90;;;;;;487292;244;28426;-75
2023/03/31 07:23:52;;;;;;;9.53;4.73;;;10.20;99.90;;;;;;487295;244;28933;-76
2023/03/31 07:25:54;;;;;;;8.23;4.53;;;10.10;99.90;;;;;;487282;244;27963;-76
2023/03/31 07:27:55;;;;;;;9.00;4.67;;;10.00;99.90;;;;;;487337;244;27939;-76
2023/03/31 07:29:56;;;;;;;11.20;4.27;;;10.00;99.90;;;;;;487311;244;27950;-77
2023/03/31 07:31:57;;;;;;;8.20;4.20;;;9.90;99.90;;;;;;487295;244;28064;-76
2023/03/31 07:33:59;;;;;;;8.37;3.60;;;9.90;99.90;;;;;;487328;244;28238;-76
2023/03/31 07:36:00;;;;;;;7.00;3.80;;;9.90;99.90;;;;;;487277;244;28091;-76
2023/03/31 07:38:01;;;;;;;8.10;3.27;;;9.90;99.90;;;;;;487292;244;27826;-76
2023/03/31 07:40:04;;;;;;;3.10;2.80;;;10.00;99.90;;;;;;487287;244;27883;-77
2023/03/31 07:42:04;;;;;;;5.50;2.90;;;9.90;99.90;;;;;;487224;244;28002;-76
2023/03/31 07:44:05;;;;;;;7.20;3.67;;;10.10;99.90;;;;;;487306;244;28047;-76
2023/03/31 07:46:07;;;;;;;6.70;4.00;;;10.20;99.90;;;;;;487253;244;28348;-75
2023/03/31 07:48:07;;;;;;;13.30;4.23;;;10.20;99.90;;;;;;487322;244;28378;-76
2023/03/31 07:50:09;;;;;;;19.90;5.80;;;10.20;99.90;;;;;;487305;244;28557;-75
2023/03/31 07:52:10;;;;;;;10.03;5.23;;;10.30;99.90;;;;;;487273;244;28140;-75
2023/03/31 07:54:11;;;;;;;17.00;5.30;;;10.20;99.90;;;;;;487233;244;27913;-77
2023/03/31 07:56:12;;;;;;;8.90;4.90;;;10.30;99.90;;;;;;487310;244;28083;-76
2023/03/31 07:58:14;;;;;;;9.60;4.17;;;10.30;99.90;;;;;;487335;244;28015;-76
2023/03/31 08:00:15;;;;;;;13.90;4.93;;;10.40;99.90;;;;;;487298;244;28027;-76
2023/03/31 08:02:16;;;;;;;10.87;4.30;;;10.50;99.90;;;;;;487277;244;27991;-76
2023/03/31 08:04:17;;;;;;;12.07;4.67;;;10.60;99.90;;;;;;487261;244;28275;-76
2023/03/31 08:06:19;;;;;;;13.40;5.60;;;10.70;99.90;;;;;;487267;244;28710;-76
2023/03/31 08:08:20;;;;;;;11.60;4.50;;;10.80;99.90;;;;;;487302;244;28651;-76
2023/03/31 08:10:21;;;;;;;14.43;5.00;;;10.90;99.90;;;;;;487301;244;28123;-76
2023/03/31 08:12:22;;;;;;;12.40;5.63;;;10.80;99.90;;;;;;487281;244;28039;-76
2023/03/31 08:14:24;;;;;;;15.33;5.53;;;10.80;99.90;;;;;;487287;244;28002;-76
2023/03/31 08:16:25;;;;;;;15.13;5.40;;;11.10;99.90;;;;;;487338;244;28099;-75
2023/03/31 08:18:26;;;;;;;13.43;5.07;;;11.20;99.90;;;;;;487315;244;28252;-76
2023/03/31 08:20:27;;;;;;;12.73;4.43;;;11.20;99.90;;;;;;487298;244;28154;-76
2023/03/31 08:22:29;;;;;;;15.20;5.50;;;11.30;99.90;;;;;;487316;244;28258;-76
2023/03/31 08:24:30;;;;;;;10.53;4.73;;;11.30;99.90;;;;;;487241;244;29360;-76
2023/03/31 08:26:33;;;;;;;12.77;4.73;;;11.00;99.90;;;;;;487327;244;28525;-75
2023/03/31 08:28:32;;;;;;;18.00;5.20;;;11.00;99.90;;;;;;487205;244;28165;-76
2023/03/31 08:30:34;;;;;;;15.23;5.60;;;10.90;99.90;;;;;;487333;244;28052;-76
2023/03/31 08:32:35;;;;;;;11.33;5.00;;;10.90;99.90;;;;;;487317;244;28248;-76
2023/03/31 08:34:36;;;;;;;9.90;4.17;;;11.00;99.90;;;;;;487257;244;28009;-76
2023/03/31 08:36:37;;;;;;;8.13;4.27;;;10.90;99.90;;;;;;487366;244;28113;-76
2023/03/31 08:38:40;;;;;;;9.50;4.03;;;10.80;99.90;;;;;;487307;244;28349;-76
2023/03/31 08:40:40;;;;;;;8.17;2.90;;;10.70;99.90;;;;;;487229;244;28081;-76
2023/03/31 08:42:41;;;;;;;11.37;4.00;;;10.50;99.90;;;;;;487271;244;28110;-77
2023/03/31 08:44:43;;;;;;;5.40;2.70;;;10.30;99.90;;;;;;487220;244;29497;-76
2023/03/31 08:46:44;;;;;;;7.23;2.70;;;10.20;99.90;;;;;;487278;244;28415;-76
2023/03/31 08:48:47;;;;;;;5.47;2.63;;;10.10;99.90;;;;;;487298;244;28535;-76
2023/03/31 08:50:46;;;;;;;7.23;2.73;;;10.00;99.90;;;;;;487133;244;28078;-76
2023/03/31 08:52:48;;;;;;;10.43;2.70;;;9.80;99.90;;;;;;487270;244;27924;-76
2023/03/31 08:54:49;;;;;;;5.80;2.30;;;9.60;99.90;;;;;;487246;244;27992;-76
2023/03/31 08:56:50;;;;;;;7.43;2.00;;;9.50;99.90;;;;;;487337;244;27983;-76
2023/03/31 08:58:51;;;;;;;8.13;2.57;;;9.50;99.90;;;;;;487306;244;27946;-76
2023/03/31 09:00:52;;;;;;;8.33;2.43;;;9.40;99.90;;;;;;487277;244;27852;-75
2023/03/31 09:02:54;;;;;;;5.20;2.30;;;9.50;99.90;;;;;;487272;244;28003;-76
2023/03/31 09:04:55;;;;;;;8.00;2.67;;;9.40;99.90;;;;;;487213;244;27569;-76
2023/03/31 09:06:56;;;;;;;5.87;2.53;;;9.40;99.90;;;;;;487280;244;27738;-76
2023/03/31 09:08:57;;;;;;;5.50;2.43;;;9.40;99.90;;;;;;487287;244;27672;-76
2023/03/31 09:10:59;;;;;;;6.47;2.40;;;9.40;99.90;;;;;;487280;244;27902;-76
2023/03/31 09:13:00;;;;;;;4.57;2.10;;;9.40;99.90;;;;;;487252;244;27635;-76
2023/03/31 09:15:01;;;;;;;6.03;2.60;;;9.40;99.90;;;;;;487223;244;28493;-75
2023/03/31 09:17:02;;;;;;;6.70;2.53;;;9.40;99.90;;;;;;487306;244;28015;-76
2023/03/31 09:19:04;;;;;;;9.17;2.87;;;9.50;99.90;;;;;;487281;244;28274;-77
2023/03/31 09:21:05;;;;;;;9.40;3.70;;;9.50;99.90;;;;;;487270;244;28369;-76
2023/03/31 09:23:06;;;;;;;12.33;4.00;;;9.60;99.90;;;;;;487262;244;28497;-76
2023/03/31 09:25:07;;;;;;;8.90;3.57;;;9.80;99.90;;;;;;487241;244;28426;-76
2023/03/31 09:27:09;;;;;;;10.73;3.60;;;10.00;99.90;;;;;;487278;244;27885;-75
2023/03/31 09:29:10;;;;;;;10.77;3.17;;;10.20;99.90;;;;;;487287;244;27992;-77
2023/03/31 09:31:11;;;;;;;11.27;3.20;;;10.40;99.90;;;;;;487262;244;27766;-75
2023/03/31 09:33:12;;;;;;;11.97;3.03;;;10.70;99.90;;;;;;487275;244;28055;-76
2023/03/31 09:35:14;;;;;;;12.40;3.73;;;10.80;99.90;;;;;;487233;243;28216;-75
2023/03/31 09:37:15;;;;;;;14.87;3.10;;;11.00;99.90;;;;;;487341;244;28342;-76
2023/03/31 09:39:16;;;;;;;15.60;3.50;;;11.20;99.90;;;;;;487294;244;28942;-76
2023/03/31 09:41:19;;;;;;;16.37;3.23;;;;;;;;;;487274;244;28955;-76
2023/03/31 09:43:20;;;;;;;15.77;3.60;;;11.20;99.90;;;;;;487360;244;27214;-76
2023/03/31 09:45:21;;;;;;;10.60;3.27;;;11.40;99.90;;;;;;487298;244;28434;-76
2023/03/31 09:47:22;;;;;;;21.73;3.77;;;11.50;99.90;;;;;;487306;244;28374;-76
2023/03/31 09:49:24;;;;;;;11.70;2.90;;;11.50;99.90;;;;;;487271;244;28668;-76
2023/03/31 09:51:25;;;;;;;14.67;3.63;;;11.30;99.90;;;;;;487238;244;28751;-76
2023/03/31 09:53:27;;;;;;;12.53;3.67;;;;;;;;;;487303;243;28880;-75
2023/03/31 09:55:29;;;;;;;10.73;2.93;;;11.10;99.90;;;;;;487216;244;27478;-76
2023/03/31 09:57:30;;;;;;;14.73;3.83;;;11.20;99.90;;;;;;487280;244;29006;-75
2023/03/31 09:59:31;;;;;;;10.80;3.20;;;11.30;99.90;;;;;;487263;244;28782;-77
2023/03/31 10:01:32;;;;;;;11.37;3.27;;;11.30;99.90;;;;;;487313;244;29433;-75
2023/03/31 10:03:35;;;;;;;12.33;3.07;;;11.30;99.90;;;;;;487333;244;28369;-76
2023/03/31 10:05:35;;;;;;;9.60;2.63;;;11.40;99.90;;;;;;487187;244;28214;-76
2023/03/31 10:07:36;;;;;;;10.80;3.13;;;11.40;99.90;;;;;;487267;244;28314;-76
2023/03/31 10:09:37;;;;;;;13.20;3.20;;;11.40;99.90;;;;;;487299;244;28797;-76
2023/03/31 10:11:39;;;;;;;20.47;3.40;;;11.30;99.90;;;;;;487297;243;28332;-76
2023/03/31 10:13:40;;;;;;;14.30;3.10;;;11.30;99.90;;;;;;487339;244;28223;-76
2023/03/31 10:15:41;;;;;;;11.40;3.20;;;11.40;99.90;;;;;;487306;244;29040;-76
2023/03/31 10:17:42;;;;;;;12.87;3.00;;;11.50;99.90;;;;;;487323;244;28545;-76
2023/03/31 10:19:45;;;;;;;14.10;3.47;;;;;;;;;;487344;244;28552;-75
2023/03/31 10:21:46;;;;;;;7.90;2.70;;;11.20;99.90;;;;;;487373;244;27328;-76
2023/03/31 10:23:47;;;;;;;11.17;3.00;;;11.10;99.90;;;;;;487355;244;29015;-76
2023/03/31 10:25:49;;;;;;;11.83;3.27;;;10.80;99.90;;;;;;487279;243;28892;-76
2023/03/31 10:27:50;;;;;;;7.90;2.83;;;10.70;99.90;;;;;;487298;244;29356;-76
2023/03/31 10:29:51;;;;;;;16.90;2.97;;;10.50;99.90;;;;;;487343;244;28245;-76
2023/03/31 10:31:52;;;;;;;7.87;2.90;;;10.40;99.90;;;;;;487330;244;28134;-76
2023/03/31 10:33:54;;;;;;;12.80;3.70;;;10.30;99.90;;;;;;487293;244;28185;-76